sensor_id;sensor_type;location;lat;lon;timestamp;P1;durP1;ratioP1;P2;durP2;ratioP2
69417;SDS011;56610;48.872;2.400;2023-04-24T00:00:08;2.35;;;1.13;;
69417;SDS011;56610;48.872;2.400;2023-04-24T00:02:34;2.55;;;1.15;;
69417;SDS011;56610;48.872;2.400;2023-04-24T00:05:04;2.53;;;1.23;;
69417;SDS011;56610;48.872;2.400;2023-04-24T00:07:30;3.75;;;1.50;;
69417;SDS011;56610;48.872;2.400;2023-04-24T00:09:56;4.82;;;1.40;;
69417;SDS011;56610;48.872;2.400;2023-04-24T00:12:21;4.28;;;1.58;;
69417;SDS011;56610;48.872;2.400;2023-04-24T00:14:47;4.68;;;1.58;;
69417;SDS011;56610;48.872;2.400;2023-04-24T00:17:12;2.53;;;1.33;;
69417;SDS011;56610;48.872;2.400;2023-04-24T00:19:38;2.67;;;1.55;;
69417;SDS011;56610;48.872;2.400;2023-04-24T00:22:24;4.70;;;1.38;;
69417;SDS011;56610;48.872;2.400;2023-04-24T00:24:50;3.00;;;1.20;;
69417;SDS011;56610;48.872;2.400;2023-04-24T00:27:16;3.75;;;2.05;;
69417;SDS011;56610;48.872;2.400;2023-04-24T00:29:41;2.53;;;1.42;;
69417;SDS011;56610;48.872;2.400;2023-04-24T00:32:07;4.38;;;1.88;;
69417;SDS011;56610;48.872;2.400;2023-04-24T00:34:33;5.85;;;1.73;;
69417;SDS011;56610;48.872;2.400;2023-04-24T00:36:58;4.80;;;1.70;;
69417;SDS011;56610;48.872;2.400;2023-04-24T00:39:24;3.22;;;1.42;;
69417;SDS011;56610;48.872;2.400;2023-04-24T00:41:49;3.78;;;1.50;;
69417;SDS011;56610;48.872;2.400;2023-04-24T00:44:16;4.10;;;1.40;;
69417;SDS011;56610;48.872;2.400;2023-04-24T00:46:42;5.78;;;1.65;;
69417;SDS011;56610;48.872;2.400;2023-04-24T00:49:08;4.07;;;1.80;;
69417;SDS011;56610;48.872;2.400;2023-04-24T00:51:33;4.88;;;2.10;;
69417;SDS011;56610;48.872;2.400;2023-04-24T00:53:59;4.60;;;1.55;;
69417;SDS011;56610;48.872;2.400;2023-04-24T00:56:28;5.68;;;1.55;;
69417;SDS011;56610;48.872;2.400;2023-04-24T00:58:55;4.03;;;1.77;;
69417;SDS011;56610;48.872;2.400;2023-04-24T01:01:21;4.03;;;1.45;;
69417;SDS011;56610;48.872;2.400;2023-04-24T01:03:48;3.95;;;1.60;;
69417;SDS011;56610;48.872;2.400;2023-04-24T01:06:15;7.72;;;2.05;;
69417;SDS011;56610;48.872;2.400;2023-04-24T01:08:41;4.57;;;1.70;;
69417;SDS011;56610;48.872;2.400;2023-04-24T01:11:08;4.72;;;1.73;;
69417;SDS011;56610;48.872;2.400;2023-04-24T01:13:34;4.07;;;1.67;;
69417;SDS011;56610;48.872;2.400;2023-04-24T01:15:59;4.80;;;1.58;;
69417;SDS011;56610;48.872;2.400;2023-04-24T01:18:46;5.47;;;1.60;;
69417;SDS011;56610;48.872;2.400;2023-04-24T01:21:12;5.15;;;1.73;;
69417;SDS011;56610;48.872;2.400;2023-04-24T01:23:41;3.05;;;1.27;;
69417;SDS011;56610;48.872;2.400;2023-04-24T01:26:08;4.80;;;1.63;;
69417;SDS011;56610;48.872;2.400;2023-04-24T01:28:34;4.97;;;1.55;;
69417;SDS011;56610;48.872;2.400;2023-04-24T01:30:59;5.18;;;1.80;;
69417;SDS011;56610;48.872;2.400;2023-04-24T01:33:25;5.03;;;1.70;;
69417;SDS011;56610;48.872;2.400;2023-04-24T01:35:51;3.88;;;1.45;;
69417;SDS011;56610;48.872;2.400;2023-04-24T01:38:17;4.10;;;1.60;;
69417;SDS011;56610;48.872;2.400;2023-04-24T01:40:42;5.07;;;1.70;;
69417;SDS011;56610;48.872;2.400;2023-04-24T01:43:08;4.85;;;1.92;;
69417;SDS011;56610;48.872;2.400;2023-04-24T01:45:34;3.42;;;1.33;;
69417;SDS011;56610;48.872;2.400;2023-04-24T01:48:00;5.20;;;1.60;;
69417;SDS011;56610;48.872;2.400;2023-04-24T01:50:26;3.92;;;1.75;;
69417;SDS011;56610;48.872;2.400;2023-04-24T01:52:51;7.22;;;1.60;;
69417;SDS011;56610;48.872;2.400;2023-04-24T01:55:17;4.53;;;1.40;;
69417;SDS011;56610;48.872;2.400;2023-04-24T01:57:42;5.10;;;2.00;;
69417;SDS011;56610;48.872;2.400;2023-04-24T02:00:08;3.53;;;1.48;;
69417;SDS011;56610;48.872;2.400;2023-04-24T02:02:36;3.50;;;1.65;;
69417;SDS011;56610;48.872;2.400;2023-04-24T02:05:02;4.18;;;1.67;;
69417;SDS011;56610;48.872;2.400;2023-04-24T02:07:27;5.43;;;1.92;;
69417;SDS011;56610;48.872;2.400;2023-04-24T02:09:53;5.03;;;1.80;;
69417;SDS011;56610;48.872;2.400;2023-04-24T02:12:20;4.53;;;2.03;;
69417;SDS011;56610;48.872;2.400;2023-04-24T02:14:45;7.95;;;2.10;;
69417;SDS011;56610;48.872;2.400;2023-04-24T02:17:11;5.22;;;1.80;;
69417;SDS011;56610;48.872;2.400;2023-04-24T02:19:38;10.27;;;1.88;;
69417;SDS011;56610;48.872;2.400;2023-04-24T02:22:04;4.28;;;1.60;;
69417;SDS011;56610;48.872;2.400;2023-04-24T02:24:29;5.63;;;1.80;;
69417;SDS011;56610;48.872;2.400;2023-04-24T02:26:55;5.03;;;1.48;;
69417;SDS011;56610;48.872;2.400;2023-04-24T02:29:20;3.72;;;1.50;;
69417;SDS011;56610;48.872;2.400;2023-04-24T02:31:46;4.93;;;1.70;;
69417;SDS011;56610;48.872;2.400;2023-04-24T02:34:11;5.55;;;1.90;;
69417;SDS011;56610;48.872;2.400;2023-04-24T02:36:37;5.65;;;1.40;;
69417;SDS011;56610;48.872;2.400;2023-04-24T02:39:02;5.32;;;1.67;;
69417;SDS011;56610;48.872;2.400;2023-04-24T02:41:28;5.80;;;1.98;;
69417;SDS011;56610;48.872;2.400;2023-04-24T02:43:56;5.28;;;1.50;;
69417;SDS011;56610;48.872;2.400;2023-04-24T02:46:23;4.18;;;1.50;;
69417;SDS011;56610;48.872;2.400;2023-04-24T02:48:48;5.93;;;1.50;;
69417;SDS011;56610;48.872;2.400;2023-04-24T02:51:14;6.05;;;1.60;;
69417;SDS011;56610;48.872;2.400;2023-04-24T02:53:39;5.28;;;1.60;;
69417;SDS011;56610;48.872;2.400;2023-04-24T02:56:05;4.13;;;1.55;;
69417;SDS011;56610;48.872;2.400;2023-04-24T02:58:31;5.90;;;1.77;;
69417;SDS011;56610;48.872;2.400;2023-04-24T03:00:56;5.75;;;1.60;;
69417;SDS011;56610;48.872;2.400;2023-04-24T03:03:22;5.32;;;1.85;;
69417;SDS011;56610;48.872;2.400;2023-04-24T03:05:48;3.90;;;1.55;;
69417;SDS011;56610;48.872;2.400;2023-04-24T03:08:14;6.70;;;2.03;;
69417;SDS011;56610;48.872;2.400;2023-04-24T03:10:39;3.88;;;1.77;;
69417;SDS011;56610;48.872;2.400;2023-04-24T03:13:05;4.22;;;1.50;;
69417;SDS011;56610;48.872;2.400;2023-04-24T03:15:31;4.80;;;1.50;;
69417;SDS011;56610;48.872;2.400;2023-04-24T03:17:56;4.97;;;1.88;;
69417;SDS011;56610;48.872;2.400;2023-04-24T03:20:22;3.88;;;1.42;;
69417;SDS011;56610;48.872;2.400;2023-04-24T03:22:48;5.95;;;1.80;;
69417;SDS011;56610;48.872;2.400;2023-04-24T03:25:13;3.33;;;1.50;;
69417;SDS011;56610;48.872;2.400;2023-04-24T03:27:39;4.25;;;1.67;;
69417;SDS011;56610;48.872;2.400;2023-04-24T03:30:06;6.90;;;2.38;;
69417;SDS011;56610;48.872;2.400;2023-04-24T03:32:32;5.15;;;1.83;;
69417;SDS011;56610;48.872;2.400;2023-04-24T03:34:58;6.22;;;1.70;;
69417;SDS011;56610;48.872;2.400;2023-04-24T03:37:23;3.75;;;1.55;;
69417;SDS011;56610;48.872;2.400;2023-04-24T03:39:49;7.85;;;2.40;;
69417;SDS011;56610;48.872;2.400;2023-04-24T03:42:15;4.20;;;1.80;;
69417;SDS011;56610;48.872;2.400;2023-04-24T03:44:40;3.92;;;1.50;;
69417;SDS011;56610;48.872;2.400;2023-04-24T03:47:06;5.13;;;1.65;;
69417;SDS011;56610;48.872;2.400;2023-04-24T03:49:32;6.13;;;1.73;;
69417;SDS011;56610;48.872;2.400;2023-04-24T03:51:58;3.85;;;1.45;;
69417;SDS011;56610;48.872;2.400;2023-04-24T03:54:23;5.60;;;1.70;;
69417;SDS011;56610;48.872;2.400;2023-04-24T03:56:49;6.10;;;1.95;;
69417;SDS011;56610;48.872;2.400;2023-04-24T03:59:14;4.30;;;1.52;;
69417;SDS011;56610;48.872;2.400;2023-04-24T04:01:40;6.10;;;2.03;;
69417;SDS011;56610;48.872;2.400;2023-04-24T04:04:06;7.07;;;2.30;;
69417;SDS011;56610;48.872;2.400;2023-04-24T04:06:32;3.55;;;1.85;;
69417;SDS011;56610;48.872;2.400;2023-04-24T04:08:58;4.85;;;1.98;;
69417;SDS011;56610;48.872;2.400;2023-04-24T04:11:24;4.80;;;1.95;;
69417;SDS011;56610;48.872;2.400;2023-04-24T04:13:50;4.75;;;1.95;;
69417;SDS011;56610;48.872;2.400;2023-04-24T04:16:15;4.68;;;2.15;;
69417;SDS011;56610;48.872;2.400;2023-04-24T04:18:44;4.90;;;1.83;;
69417;SDS011;56610;48.872;2.400;2023-04-24T04:21:10;4.25;;;2.05;;
69417;SDS011;56610;48.872;2.400;2023-04-24T04:23:36;5.38;;;2.00;;
69417;SDS011;56610;48.872;2.400;2023-04-24T04:26:02;5.55;;;2.10;;
69417;SDS011;56610;48.872;2.400;2023-04-24T04:28:28;5.68;;;2.00;;
69417;SDS011;56610;48.872;2.400;2023-04-24T04:30:55;8.20;;;2.20;;
69417;SDS011;56610;48.872;2.400;2023-04-24T04:33:22;3.67;;;1.95;;
69417;SDS011;56610;48.872;2.400;2023-04-24T04:35:51;4.57;;;2.50;;
69417;SDS011;56610;48.872;2.400;2023-04-24T04:38:21;5.53;;;2.40;;
69417;SDS011;56610;48.872;2.400;2023-04-24T04:40:47;6.97;;;2.25;;
69417;SDS011;56610;48.872;2.400;2023-04-24T04:43:13;4.22;;;2.05;;
69417;SDS011;56610;48.872;2.400;2023-04-24T04:45:40;6.10;;;2.30;;
69417;SDS011;56610;48.872;2.400;2023-04-24T04:48:07;6.55;;;2.45;;
69417;SDS011;56610;48.872;2.400;2023-04-24T04:50:34;4.78;;;2.08;;
69417;SDS011;56610;48.872;2.400;2023-04-24T04:53:00;5.55;;;2.50;;
69417;SDS011;56610;48.872;2.400;2023-04-24T04:55:25;4.75;;;2.80;;
69417;SDS011;56610;48.872;2.400;2023-04-24T04:57:51;6.53;;;2.40;;
69417;SDS011;56610;48.872;2.400;2023-04-24T05:00:17;3.28;;;2.20;;
69417;SDS011;56610;48.872;2.400;2023-04-24T05:03:04;6.78;;;2.50;;
69417;SDS011;56610;48.872;2.400;2023-04-24T05:05:30;7.10;;;2.40;;
69417;SDS011;56610;48.872;2.400;2023-04-24T05:07:55;4.97;;;2.40;;
69417;SDS011;56610;48.872;2.400;2023-04-24T05:10:21;5.50;;;1.95;;
69417;SDS011;56610;48.872;2.400;2023-04-24T05:12:46;4.95;;;2.10;;
69417;SDS011;56610;48.872;2.400;2023-04-24T05:15:12;6.85;;;2.60;;
69417;SDS011;56610;48.872;2.400;2023-04-24T05:17:38;7.13;;;2.65;;
69417;SDS011;56610;48.872;2.400;2023-04-24T05:20:05;3.92;;;2.60;;
69417;SDS011;56610;48.872;2.400;2023-04-24T05:22:31;5.65;;;2.55;;
69417;SDS011;56610;48.872;2.400;2023-04-24T05:24:57;5.68;;;2.60;;
69417;SDS011;56610;48.872;2.400;2023-04-24T05:27:23;5.00;;;2.45;;
69417;SDS011;56610;48.872;2.400;2023-04-24T05:29:49;6.70;;;2.80;;
69417;SDS011;56610;48.872;2.400;2023-04-24T05:32:15;6.03;;;2.60;;
69417;SDS011;56610;48.872;2.400;2023-04-24T05:34:41;4.90;;;3.00;;
69417;SDS011;56610;48.872;2.400;2023-04-24T05:37:07;4.60;;;2.70;;
69417;SDS011;56610;48.872;2.400;2023-04-24T05:39:34;5.80;;;3.50;;
69417;SDS011;56610;48.872;2.400;2023-04-24T05:42:00;7.15;;;2.92;;
69417;SDS011;56610;48.872;2.400;2023-04-24T05:44:27;4.65;;;2.65;;
69417;SDS011;56610;48.872;2.400;2023-04-24T05:46:52;5.10;;;3.47;;
69417;SDS011;56610;48.872;2.400;2023-04-24T05:49:20;5.32;;;2.88;;
69417;SDS011;56610;48.872;2.400;2023-04-24T05:51:45;5.70;;;3.30;;
69417;SDS011;56610;48.872;2.400;2023-04-24T05:54:11;7.65;;;3.00;;
69417;SDS011;56610;48.872;2.400;2023-04-24T05:56:37;7.80;;;3.15;;
69417;SDS011;56610;48.872;2.400;2023-04-24T05:59:03;5.70;;;3.20;;
69417;SDS011;56610;48.872;2.400;2023-04-24T06:01:28;6.25;;;3.85;;
69417;SDS011;56610;48.872;2.400;2023-04-24T06:03:54;5.30;;;2.97;;
69417;SDS011;56610;48.872;2.400;2023-04-24T06:06:20;7.13;;;3.28;;
69417;SDS011;56610;48.872;2.400;2023-04-24T06:08:45;6.15;;;3.50;;
69417;SDS011;56610;48.872;2.400;2023-04-24T06:11:11;6.53;;;3.63;;
69417;SDS011;56610;48.872;2.400;2023-04-24T06:13:37;6.97;;;3.45;;
69417;SDS011;56610;48.872;2.400;2023-04-24T06:16:02;7.85;;;3.35;;
69417;SDS011;56610;48.872;2.400;2023-04-24T06:18:28;6.13;;;3.70;;
69417;SDS011;56610;48.872;2.400;2023-04-24T06:20:54;5.10;;;3.20;;
69417;SDS011;56610;48.872;2.400;2023-04-24T06:23:20;4.57;;;3.10;;
69417;SDS011;56610;48.872;2.400;2023-04-24T06:25:46;7.05;;;3.30;;
69417;SDS011;56610;48.872;2.400;2023-04-24T06:28:12;7.45;;;3.42;;
69417;SDS011;56610;48.872;2.400;2023-04-24T06:30:38;6.57;;;3.30;;
69417;SDS011;56610;48.872;2.400;2023-04-24T06:33:03;5.75;;;3.45;;
69417;SDS011;56610;48.872;2.400;2023-04-24T06:35:29;6.55;;;3.20;;
69417;SDS011;56610;48.872;2.400;2023-04-24T06:37:54;8.20;;;4.35;;
69417;SDS011;56610;48.872;2.400;2023-04-24T06:40:21;8.73;;;3.80;;
69417;SDS011;56610;48.872;2.400;2023-04-24T06:42:47;7.10;;;3.95;;
69417;SDS011;56610;48.872;2.400;2023-04-24T06:45:12;7.75;;;4.10;;
69417;SDS011;56610;48.872;2.400;2023-04-24T06:47:38;7.78;;;4.38;;
69417;SDS011;56610;48.872;2.400;2023-04-24T06:50:03;6.40;;;3.88;;
69417;SDS011;56610;48.872;2.400;2023-04-24T06:52:30;7.28;;;4.22;;
69417;SDS011;56610;48.872;2.400;2023-04-24T06:55:02;6.22;;;4.53;;
69417;SDS011;56610;48.872;2.400;2023-04-24T06:57:28;6.03;;;4.07;;
69417;SDS011;56610;48.872;2.400;2023-04-24T06:59:54;6.28;;;3.80;;
69417;SDS011;56610;48.872;2.400;2023-04-24T07:02:20;7.43;;;4.82;;
69417;SDS011;56610;48.872;2.400;2023-04-24T07:04:45;8.32;;;4.63;;
69417;SDS011;56610;48.872;2.400;2023-04-24T07:07:12;6.03;;;4.07;;
69417;SDS011;56610;48.872;2.400;2023-04-24T07:09:41;8.00;;;4.13;;
69417;SDS011;56610;48.872;2.400;2023-04-24T07:12:08;9.25;;;5.03;;
69417;SDS011;56610;48.872;2.400;2023-04-24T07:14:35;6.97;;;4.00;;
69417;SDS011;56610;48.872;2.400;2023-04-24T07:17:02;8.00;;;4.47;;
69417;SDS011;56610;48.872;2.400;2023-04-24T07:19:28;6.15;;;5.07;;
69417;SDS011;56610;48.872;2.400;2023-04-24T07:21:54;8.35;;;5.30;;
69417;SDS011;56610;48.872;2.400;2023-04-24T07:24:20;7.35;;;5.85;;
69417;SDS011;56610;48.872;2.400;2023-04-24T07:26:46;7.65;;;5.35;;
69417;SDS011;56610;48.872;2.400;2023-04-24T07:29:12;7.38;;;4.90;;
69417;SDS011;56610;48.872;2.400;2023-04-24T07:31:38;8.13;;;5.57;;
69417;SDS011;56610;48.872;2.400;2023-04-24T07:34:05;8.68;;;6.78;;
69417;SDS011;56610;48.872;2.400;2023-04-24T07:36:31;9.10;;;6.20;;
69417;SDS011;56610;48.872;2.400;2023-04-24T07:38:57;9.45;;;6.22;;
69417;SDS011;56610;48.872;2.400;2023-04-24T07:41:22;8.38;;;6.60;;
69417;SDS011;56610;48.872;2.400;2023-04-24T07:43:49;6.47;;;5.78;;
69417;SDS011;56610;48.872;2.400;2023-04-24T07:46:14;7.88;;;6.70;;
69417;SDS011;56610;48.872;2.400;2023-04-24T07:48:40;7.28;;;6.50;;
69417;SDS011;56610;48.872;2.400;2023-04-24T07:51:06;9.05;;;6.50;;
69417;SDS011;56610;48.872;2.400;2023-04-24T07:53:31;8.48;;;5.38;;
69417;SDS011;56610;48.872;2.400;2023-04-24T07:55:57;7.65;;;6.00;;
69417;SDS011;56610;48.872;2.400;2023-04-24T07:58:23;10.32;;;6.65;;
69417;SDS011;56610;48.872;2.400;2023-04-24T08:00:48;8.32;;;5.88;;
69417;SDS011;56610;48.872;2.400;2023-04-24T08:03:14;10.60;;;6.15;;
69417;SDS011;56610;48.872;2.400;2023-04-24T08:05:43;6.60;;;5.43;;
69417;SDS011;56610;48.872;2.400;2023-04-24T08:08:08;7.55;;;6.00;;
69417;SDS011;56610;48.872;2.400;2023-04-24T08:10:38;8.82;;;6.13;;
69417;SDS011;56610;48.872;2.400;2023-04-24T08:13:04;8.15;;;6.05;;
69417;SDS011;56610;48.872;2.400;2023-04-24T08:15:29;7.22;;;5.53;;
69417;SDS011;56610;48.872;2.400;2023-04-24T08:17:55;8.48;;;5.68;;
69417;SDS011;56610;48.872;2.400;2023-04-24T08:20:20;6.97;;;5.53;;
69417;SDS011;56610;48.872;2.400;2023-04-24T08:22:46;10.38;;;6.68;;
69417;SDS011;56610;48.872;2.400;2023-04-24T08:25:13;8.25;;;5.97;;
69417;SDS011;56610;48.872;2.400;2023-04-24T08:27:39;8.10;;;5.70;;
69417;SDS011;56610;48.872;2.400;2023-04-24T08:30:04;9.77;;;6.55;;
69417;SDS011;56610;48.872;2.400;2023-04-24T08:32:31;8.73;;;6.28;;
69417;SDS011;56610;48.872;2.400;2023-04-24T08:34:57;9.77;;;7.43;;
69417;SDS011;56610;48.872;2.400;2023-04-24T08:37:26;8.73;;;6.28;;
69417;SDS011;56610;48.872;2.400;2023-04-24T08:39:52;10.93;;;6.78;;
69417;SDS011;56610;48.872;2.400;2023-04-24T08:42:18;7.20;;;6.30;;
69417;SDS011;56610;48.872;2.400;2023-04-24T08:44:45;9.45;;;7.15;;
69417;SDS011;56610;48.872;2.400;2023-04-24T08:47:13;10.63;;;7.03;;
69417;SDS011;56610;48.872;2.400;2023-04-24T08:49:39;10.63;;;6.00;;
69417;SDS011;56610;48.872;2.400;2023-04-24T08:52:05;9.52;;;6.90;;
69417;SDS011;56610;48.872;2.400;2023-04-24T08:54:31;8.25;;;7.32;;
69417;SDS011;56610;48.872;2.400;2023-04-24T08:56:59;10.07;;;6.97;;
69417;SDS011;56610;48.872;2.400;2023-04-24T08:59:31;10.55;;;7.22;;
69417;SDS011;56610;48.872;2.400;2023-04-24T09:01:57;8.65;;;6.43;;
69417;SDS011;56610;48.872;2.400;2023-04-24T09:04:24;7.68;;;6.88;;
69417;SDS011;56610;48.872;2.400;2023-04-24T09:06:51;7.03;;;6.13;;
69417;SDS011;56610;48.872;2.400;2023-04-24T09:09:20;9.43;;;6.70;;
69417;SDS011;56610;48.872;2.400;2023-04-24T09:11:47;9.30;;;6.47;;
69417;SDS011;56610;48.872;2.400;2023-04-24T09:14:15;7.63;;;6.72;;
69417;SDS011;56610;48.872;2.400;2023-04-24T09:16:42;9.48;;;7.18;;
69417;SDS011;56610;48.872;2.400;2023-04-24T09:19:07;7.93;;;6.57;;
69417;SDS011;56610;48.872;2.400;2023-04-24T09:21:33;9.07;;;7.18;;
69417;SDS011;56610;48.872;2.400;2023-04-24T09:24:00;8.45;;;7.15;;
69417;SDS011;56610;48.872;2.400;2023-04-24T09:26:33;9.23;;;8.00;;
69417;SDS011;56610;48.872;2.400;2023-04-24T09:29:00;8.40;;;7.35;;
69417;SDS011;56610;48.872;2.400;2023-04-24T09:31:28;9.17;;;7.33;;
69417;SDS011;56610;48.872;2.400;2023-04-24T09:36:28;9.02;;;6.60;;
69417;SDS011;56610;48.872;2.400;2023-04-24T09:38:57;6.85;;;6.25;;
69417;SDS011;56610;48.872;2.400;2023-04-24T09:41:23;7.40;;;6.70;;
69417;SDS011;56610;48.872;2.400;2023-04-24T09:43:49;7.57;;;6.38;;
69417;SDS011;56610;48.872;2.400;2023-04-24T09:46:15;7.53;;;6.63;;
69417;SDS011;56610;48.872;2.400;2023-04-24T09:48:43;7.15;;;6.45;;
69417;SDS011;56610;48.872;2.400;2023-04-24T09:51:09;6.32;;;5.72;;
69417;SDS011;56610;48.872;2.400;2023-04-24T09:53:38;7.22;;;6.15;;
69417;SDS011;56610;48.872;2.400;2023-04-24T09:56:07;7.65;;;5.70;;
69417;SDS011;56610;48.872;2.400;2023-04-24T09:58:34;7.20;;;6.43;;
69417;SDS011;56610;48.872;2.400;2023-04-24T10:01:01;7.00;;;6.25;;
69417;SDS011;56610;48.872;2.400;2023-04-24T10:03:29;8.73;;;6.75;;
69417;SDS011;56610;48.872;2.400;2023-04-24T10:05:58;8.45;;;7.03;;
69417;SDS011;56610;48.872;2.400;2023-04-24T10:08:24;8.82;;;6.95;;
69417;SDS011;56610;48.872;2.400;2023-04-24T10:10:51;6.82;;;6.10;;
69417;SDS011;56610;48.872;2.400;2023-04-24T10:13:17;7.47;;;6.20;;
69417;SDS011;56610;48.872;2.400;2023-04-24T10:15:43;7.15;;;6.50;;
69417;SDS011;56610;48.872;2.400;2023-04-24T10:18:10;7.78;;;6.15;;
69417;SDS011;56610;48.872;2.400;2023-04-24T10:20:36;9.95;;;6.70;;
69417;SDS011;56610;48.872;2.400;2023-04-24T10:23:03;7.70;;;6.28;;
69417;SDS011;56610;48.872;2.400;2023-04-24T10:25:30;7.22;;;6.15;;
69417;SDS011;56610;48.872;2.400;2023-04-24T10:27:58;6.28;;;5.68;;
69417;SDS011;56610;48.872;2.400;2023-04-24T10:30:29;6.72;;;6.03;;
69417;SDS011;56610;48.872;2.400;2023-04-24T10:32:59;7.68;;;6.05;;
69417;SDS011;56610;48.872;2.400;2023-04-24T10:35:26;6.97;;;6.25;;
69417;SDS011;56610;48.872;2.400;2023-04-24T10:37:59;6.80;;;5.57;;
69417;SDS011;56610;48.872;2.400;2023-04-24T10:40:27;6.25;;;5.63;;
69417;SDS011;56610;48.872;2.400;2023-04-24T10:43:02;5.95;;;5.35;;
69417;SDS011;56610;48.872;2.400;2023-04-24T10:45:31;6.25;;;5.40;;
69417;SDS011;56610;48.872;2.400;2023-04-24T10:47:57;6.60;;;5.90;;
69417;SDS011;56610;48.872;2.400;2023-04-24T10:50:42;6.50;;;5.78;;
69417;SDS011;56610;48.872;2.400;2023-04-24T10:53:17;6.97;;;4.65;;
69417;SDS011;56610;48.872;2.400;2023-04-24T10:56:04;6.22;;;5.28;;
69417;SDS011;56610;48.872;2.400;2023-04-24T11:01:05;7.00;;;5.78;;
69417;SDS011;56610;48.872;2.400;2023-04-24T11:03:32;6.43;;;5.40;;
69417;SDS011;56610;48.872;2.400;2023-04-24T11:06:08;7.63;;;5.75;;
69417;SDS011;56610;48.872;2.400;2023-04-24T11:08:38;7.47;;;5.45;;
69417;SDS011;56610;48.872;2.400;2023-04-24T11:11:14;7.45;;;5.07;;
69417;SDS011;56610;48.872;2.400;2023-04-24T11:16:29;5.97;;;4.40;;
69417;SDS011;56610;48.872;2.400;2023-04-24T11:19:07;5.50;;;4.25;;
69417;SDS011;56610;48.872;2.400;2023-04-24T11:27:05;5.50;;;4.43;;
69417;SDS011;56610;48.872;2.400;2023-04-24T11:37:39;5.88;;;4.10;;
69417;SDS011;56610;48.872;2.400;2023-04-24T11:40:07;6.15;;;4.05;;
69417;SDS011;56610;48.872;2.400;2023-04-24T11:42:35;5.50;;;4.75;;
69417;SDS011;56610;48.872;2.400;2023-04-24T11:45:01;6.55;;;4.30;;
69417;SDS011;56610;48.872;2.400;2023-04-24T11:47:32;4.90;;;4.38;;
69417;SDS011;56610;48.872;2.400;2023-04-24T11:50:00;5.20;;;4.07;;
69417;SDS011;56610;48.872;2.400;2023-04-24T11:52:28;5.30;;;4.30;;
69417;SDS011;56610;48.872;2.400;2023-04-24T11:54:59;4.28;;;3.88;;
69417;SDS011;56610;48.872;2.400;2023-04-24T11:57:25;4.35;;;3.72;;
69417;SDS011;56610;48.872;2.400;2023-04-24T11:59:58;4.20;;;3.58;;
69417;SDS011;56610;48.872;2.400;2023-04-24T12:02:28;4.13;;;3.33;;
69417;SDS011;56610;48.872;2.400;2023-04-24T12:04:54;4.32;;;3.50;;
69417;SDS011;56610;48.872;2.400;2023-04-24T12:07:20;3.60;;;3.20;;
69417;SDS011;56610;48.872;2.400;2023-04-24T12:09:49;5.32;;;3.63;;
69417;SDS011;56610;48.872;2.400;2023-04-24T12:12:20;4.05;;;3.30;;
69417;SDS011;56610;48.872;2.400;2023-04-24T12:14:52;4.15;;;3.28;;
69417;SDS011;56610;48.872;2.400;2023-04-24T12:17:29;4.43;;;3.30;;
69417;SDS011;56610;48.872;2.400;2023-04-24T12:19:57;4.80;;;3.40;;
69417;SDS011;56610;48.872;2.400;2023-04-24T12:22:25;3.63;;;2.50;;
69417;SDS011;56610;48.872;2.400;2023-04-24T12:27:23;2.55;;;2.35;;
69417;SDS011;56610;48.872;2.400;2023-04-24T12:29:51;2.78;;;2.40;;
69417;SDS011;56610;48.872;2.400;2023-04-24T12:32:18;3.80;;;2.13;;
69417;SDS011;56610;48.872;2.400;2023-04-24T12:34:44;3.75;;;2.28;;
69417;SDS011;56610;48.872;2.400;2023-04-24T12:37:10;3.25;;;2.30;;
69417;SDS011;56610;48.872;2.400;2023-04-24T12:39:37;3.35;;;2.45;;
69417;SDS011;56610;48.872;2.400;2023-04-24T12:42:02;2.28;;;2.08;;
69417;SDS011;56610;48.872;2.400;2023-04-24T12:44:28;4.30;;;2.20;;
69417;SDS011;56610;48.872;2.400;2023-04-24T12:46:59;3.30;;;2.20;;
69417;SDS011;56610;48.872;2.400;2023-04-24T12:49:26;2.83;;;2.20;;
69417;SDS011;56610;48.872;2.400;2023-04-24T12:51:52;3.92;;;2.38;;
69417;SDS011;56610;48.872;2.400;2023-04-24T12:54:18;2.50;;;2.30;;
69417;SDS011;56610;48.872;2.400;2023-04-24T12:56:43;2.50;;;1.73;;
69417;SDS011;56610;48.872;2.400;2023-04-24T12:59:09;3.72;;;2.25;;
69417;SDS011;56610;48.872;2.400;2023-04-24T13:01:34;3.53;;;2.28;;
69417;SDS011;56610;48.872;2.400;2023-04-24T13:04:00;4.32;;;2.20;;
69417;SDS011;56610;48.872;2.400;2023-04-24T13:06:26;3.45;;;2.50;;
69417;SDS011;56610;48.872;2.400;2023-04-24T13:08:51;3.00;;;2.10;;
69417;SDS011;56610;48.872;2.400;2023-04-24T13:11:17;5.78;;;2.63;;
69417;SDS011;56610;48.872;2.400;2023-04-24T13:13:43;4.40;;;2.28;;
69417;SDS011;56610;48.872;2.400;2023-04-24T13:16:08;4.57;;;2.20;;
69417;SDS011;56610;48.872;2.400;2023-04-24T13:18:34;3.42;;;2.08;;
69417;SDS011;56610;48.872;2.400;2023-04-24T13:21:00;6.53;;;2.10;;
69417;SDS011;56610;48.872;2.400;2023-04-24T13:23:25;2.88;;;2.08;;
69417;SDS011;56610;48.872;2.400;2023-04-24T13:25:51;2.80;;;1.90;;
69417;SDS011;56610;48.872;2.400;2023-04-24T13:28:16;3.28;;;1.70;;
69417;SDS011;56610;48.872;2.400;2023-04-24T13:30:42;2.50;;;1.70;;
69417;SDS011;56610;48.872;2.400;2023-04-24T13:33:08;4.95;;;1.67;;
69417;SDS011;56610;48.872;2.400;2023-04-24T13:35:34;3.60;;;1.80;;
69417;SDS011;56610;48.872;2.400;2023-04-24T13:37:59;2.65;;;1.52;;
69417;SDS011;56610;48.872;2.400;2023-04-24T13:40:26;3.35;;;1.60;;
69417;SDS011;56610;48.872;2.400;2023-04-24T13:42:52;3.65;;;1.80;;
69417;SDS011;56610;48.872;2.400;2023-04-24T13:45:17;2.45;;;1.40;;
69417;SDS011;56610;48.872;2.400;2023-04-24T13:47:43;1.75;;;1.15;;
69417;SDS011;56610;48.872;2.400;2023-04-24T13:50:09;2.55;;;1.48;;
69417;SDS011;56610;48.872;2.400;2023-04-24T13:52:35;2.70;;;1.30;;
69417;SDS011;56610;48.872;2.400;2023-04-24T13:55:00;2.40;;;1.40;;
69417;SDS011;56610;48.872;2.400;2023-04-24T13:57:26;2.58;;;1.40;;
69417;SDS011;56610;48.872;2.400;2023-04-24T13:59:53;2.88;;;1.70;;
69417;SDS011;56610;48.872;2.400;2023-04-24T14:02:20;2.00;;;1.30;;
69417;SDS011;56610;48.872;2.400;2023-04-24T14:04:46;3.58;;;1.58;;
69417;SDS011;56610;48.872;2.400;2023-04-24T14:07:13;2.67;;;1.40;;
69417;SDS011;56610;48.872;2.400;2023-04-24T14:09:38;2.40;;;1.30;;
69417;SDS011;56610;48.872;2.400;2023-04-24T14:12:04;2.00;;;1.10;;
69417;SDS011;56610;48.872;2.400;2023-04-24T14:14:30;3.80;;;1.60;;
69417;SDS011;56610;48.872;2.400;2023-04-24T14:16:56;2.50;;;1.23;;
69417;SDS011;56610;48.872;2.400;2023-04-24T14:19:22;2.17;;;1.30;;
69417;SDS011;56610;48.872;2.400;2023-04-24T14:21:48;4.20;;;2.03;;
69417;SDS011;56610;48.872;2.400;2023-04-24T14:24:13;6.38;;;3.10;;
69417;SDS011;56610;48.872;2.400;2023-04-24T14:26:39;2.50;;;1.40;;
69417;SDS011;56610;48.872;2.400;2023-04-24T14:29:04;1.50;;;1.38;;
69417;SDS011;56610;48.872;2.400;2023-04-24T14:31:30;2.72;;;1.70;;
69417;SDS011;56610;48.872;2.400;2023-04-24T14:33:56;3.38;;;1.20;;
69417;SDS011;56610;48.872;2.400;2023-04-24T14:36:22;3.65;;;1.30;;
69417;SDS011;56610;48.872;2.400;2023-04-24T14:38:49;1.58;;;1.10;;
69417;SDS011;56610;48.872;2.400;2023-04-24T14:41:14;2.00;;;1.25;;
69417;SDS011;56610;48.872;2.400;2023-04-24T14:43:40;3.83;;;1.27;;
69417;SDS011;56610;48.872;2.400;2023-04-24T14:46:06;2.35;;;1.10;;
69417;SDS011;56610;48.872;2.400;2023-04-24T14:48:31;2.67;;;1.08;;
69417;SDS011;56610;48.872;2.400;2023-04-24T14:50:57;1.50;;;1.20;;
69417;SDS011;56610;48.872;2.400;2023-04-24T14:53:23;1.02;;;0.90;;
69417;SDS011;56610;48.872;2.400;2023-04-24T14:55:49;2.25;;;0.90;;
69417;SDS011;56610;48.872;2.400;2023-04-24T14:58:14;1.75;;;1.02;;
69417;SDS011;56610;48.872;2.400;2023-04-24T15:00:40;1.60;;;0.90;;
69417;SDS011;56610;48.872;2.400;2023-04-24T15:03:05;1.95;;;1.10;;
69417;SDS011;56610;48.872;2.400;2023-04-24T15:05:32;1.42;;;0.90;;
69417;SDS011;56610;48.872;2.400;2023-04-24T15:07:57;1.45;;;1.05;;